Terminal Aerodrome Forecast
Issued by NWS

Home | Current Version | Previous Version | Text Only | Print | Product List | Glossary On
Versions: 1 2 3 4 5 6 7 8 9 10 11 12 13 14 15
000
FTUS43 KILX 062300
TAFDEC
TAF
KDEC 062320Z 0700/0724 21010KT P6SM SCT150 BKN200
     FM071400 23014G22KT P6SM SCT100
     FM071900 26012G20KT P6SM SKC=

USA.gov is the U.S. government's official web portal to all federal, state and local government web resources and services.